sensor_id;sensor_type;location;lat;lon;timestamp;pressure;altitude;pressure_sealevel;temperature;humidity
61086;BME280;46967;48.876;2.136;2023-04-07T00:01:36;101568.09;;;9.06;80.14
61086;BME280;46967;48.876;2.136;2023-04-07T00:04:01;101566.34;;;9.05;80.25
61086;BME280;46967;48.876;2.136;2023-04-07T00:06:26;101567.25;;;9.06;80.17
61086;BME280;46967;48.876;2.136;2023-04-07T00:08:52;101562.06;;;9.04;80.30
61086;BME280;46967;48.876;2.136;2023-04-07T00:11:18;101557.72;;;9.08;80.20
61086;BME280;46967;48.876;2.136;2023-04-07T00:13:43;101556.75;;;9.18;79.85
61086;BME280;46967;48.876;2.136;2023-04-07T00:16:08;101560.19;;;9.17;79.83
61086;BME280;46967;48.876;2.136;2023-04-07T00:18:34;101565.31;;;9.22;79.71
61086;BME280;46967;48.876;2.136;2023-04-07T00:20:59;101566.94;;;9.29;79.79
61086;BME280;46967;48.876;2.136;2023-04-07T00:23:25;101557.44;;;9.31;79.82
61086;BME280;46967;48.876;2.136;2023-04-07T00:25:51;101556.50;;;9.35;79.47
61086;BME280;46967;48.876;2.136;2023-04-07T00:28:16;101551.34;;;9.35;79.67
61086;BME280;46967;48.876;2.136;2023-04-07T00:30:41;101552.19;;;9.39;79.53
61086;BME280;46967;48.876;2.136;2023-04-07T00:33:07;101546.09;;;9.40;79.36
61086;BME280;46967;48.876;2.136;2023-04-07T00:35:32;101554.69;;;9.43;79.25
61086;BME280;46967;48.876;2.136;2023-04-07T00:37:57;101546.88;;;9.45;79.30
61086;BME280;46967;48.876;2.136;2023-04-07T00:40:23;101551.22;;;9.45;79.18
61086;BME280;46967;48.876;2.136;2023-04-07T00:42:48;101541.75;;;9.40;79.48
61086;BME280;46967;48.876;2.136;2023-04-07T00:45:14;101536.59;;;9.40;79.54
61086;BME280;46967;48.876;2.136;2023-04-07T00:47:40;101539.25;;;9.37;79.81
61086;BME280;46967;48.876;2.136;2023-04-07T00:50:06;101538.38;;;9.37;79.89
61086;BME280;46967;48.876;2.136;2023-04-07T00:52:32;101539.34;;;9.30;79.98
61086;BME280;46967;48.876;2.136;2023-04-07T00:54:58;101538.38;;;9.35;79.68
61086;BME280;46967;48.876;2.136;2023-04-07T00:57:24;101530.56;;;9.38;79.40
61086;BME280;46967;48.876;2.136;2023-04-07T00:59:52;101531.38;;;9.42;79.73
61086;BME280;46967;48.876;2.136;2023-04-07T01:02:28;101533.19;;;9.37;79.71
61086;BME280;46967;48.876;2.136;2023-04-07T01:05:15;101534.06;;;9.36;79.71
61086;BME280;46967;48.876;2.136;2023-04-07T01:10:14;101533.25;;;9.31;79.49
61086;BME280;46967;48.876;2.136;2023-04-07T01:15:23;101533.28;;;9.28;79.62
61086;BME280;46967;48.876;2.136;2023-04-07T01:18:07;101534.25;;;9.22;79.66
61086;BME280;46967;48.876;2.136;2023-04-07T01:20:36;101529.88;;;9.25;79.49
61086;BME280;46967;48.876;2.136;2023-04-07T01:23:05;101529.91;;;9.22;79.50
61086;BME280;46967;48.876;2.136;2023-04-07T01:30:30;101534.41;;;9.08;80.05
61086;BME280;46967;48.876;2.136;2023-04-07T01:32:58;101537.06;;;9.02;80.11
61086;BME280;46967;48.876;2.136;2023-04-07T01:35:26;101544.91;;;8.96;80.46
61086;BME280;46967;48.876;2.136;2023-04-07T01:37:54;101540.63;;;8.93;80.68
61086;BME280;46967;48.876;2.136;2023-04-07T01:40:20;101540.63;;;8.93;80.75
61086;BME280;46967;48.876;2.136;2023-04-07T01:42:47;101540.66;;;8.90;80.70
61086;BME280;46967;48.876;2.136;2023-04-07T01:45:15;101540.72;;;8.85;81.11
61086;BME280;46967;48.876;2.136;2023-04-07T01:47:41;101545.88;;;8.87;81.16
61086;BME280;46967;48.876;2.136;2023-04-07T01:50:09;101547.59;;;8.85;81.50
61086;BME280;46967;48.876;2.136;2023-04-07T01:52:36;101533.94;;;8.72;81.91
61086;BME280;46967;48.876;2.136;2023-04-07T01:55:05;101541.69;;;8.72;82.03
61086;BME280;46967;48.876;2.136;2023-04-07T01:57:31;101540.06;;;8.65;82.19
61086;BME280;46967;48.876;2.136;2023-04-07T01:59:56;101540.06;;;8.65;82.63
61086;BME280;46967;48.876;2.136;2023-04-07T02:02:22;101541.00;;;8.56;82.82
61086;BME280;46967;48.876;2.136;2023-04-07T02:04:55;101542.75;;;8.56;83.00
61086;BME280;46967;48.876;2.136;2023-04-07T02:07:36;101549.59;;;8.60;82.62
61086;BME280;46967;48.876;2.136;2023-04-07T02:10:05;101553.03;;;8.62;82.94
61086;BME280;46967;48.876;2.136;2023-04-07T02:12:33;101547.06;;;8.55;83.06
61086;BME280;46967;48.876;2.136;2023-04-07T02:14:59;101557.38;;;8.60;82.98
61086;BME280;46967;48.876;2.136;2023-04-07T02:17:26;101551.28;;;8.62;82.69
61086;BME280;46967;48.876;2.136;2023-04-07T02:19:53;101547.06;;;8.57;82.93
61086;BME280;46967;48.876;2.136;2023-04-07T02:22:20;101550.50;;;8.56;82.53
61086;BME280;46967;48.876;2.136;2023-04-07T02:24:45;101548.00;;;8.46;82.88
61086;BME280;46967;48.876;2.136;2023-04-07T02:27:11;101549.72;;;8.46;83.36
61086;BME280;46967;48.876;2.136;2023-04-07T02:29:36;101553.16;;;8.42;83.66
61086;BME280;46967;48.876;2.136;2023-04-07T02:32:01;101550.59;;;8.42;83.59
61086;BME280;46967;48.876;2.136;2023-04-07T02:34:27;101550.59;;;8.42;83.57
61086;BME280;46967;48.876;2.136;2023-04-07T02:36:52;101547.19;;;8.38;83.87
61086;BME280;46967;48.876;2.136;2023-04-07T02:39:17;101542.88;;;8.34;84.01
61086;BME280;46967;48.876;2.136;2023-04-07T02:41:43;101545.53;;;8.28;84.16
61086;BME280;46967;48.876;2.136;2023-04-07T02:44:08;101549.88;;;8.24;83.99
61086;BME280;46967;48.876;2.136;2023-04-07T02:46:33;101543.03;;;8.19;85.06
61086;BME280;46967;48.876;2.136;2023-04-07T02:48:59;101547.28;;;8.24;85.56
61086;BME280;46967;48.876;2.136;2023-04-07T02:51:24;101541.25;;;8.24;85.86
61086;BME280;46967;48.876;2.136;2023-04-07T02:53:51;101538.75;;;8.16;86.70
61086;BME280;46967;48.876;2.136;2023-04-07T02:56:16;101543.91;;;8.16;86.88
61086;BME280;46967;48.876;2.136;2023-04-07T02:58:42;101548.22;;;8.19;86.94
61086;BME280;46967;48.876;2.136;2023-04-07T03:01:07;101546.47;;;8.18;86.72
61086;BME280;46967;48.876;2.136;2023-04-07T03:03:32;101552.63;;;8.07;87.91
61086;BME280;46967;48.876;2.136;2023-04-07T03:05:58;101550.84;;;8.14;87.71
61086;BME280;46967;48.876;2.136;2023-04-07T03:08:23;101551.72;;;8.08;87.83
61086;BME280;46967;48.876;2.136;2023-04-07T03:10:48;101547.44;;;8.07;88.05
61086;BME280;46967;48.876;2.136;2023-04-07T03:13:14;101553.50;;;8.02;88.73
61086;BME280;46967;48.876;2.136;2023-04-07T03:15:43;101551.75;;;8.02;88.58
61086;BME280;46967;48.876;2.136;2023-04-07T03:18:08;101540.56;;;8.05;88.45
61086;BME280;46967;48.876;2.136;2023-04-07T03:20:33;101541.41;;;8.05;88.54
61086;BME280;46967;48.876;2.136;2023-04-07T03:22:59;101544.03;;;7.99;88.90
61086;BME280;46967;48.876;2.136;2023-04-07T03:25:24;101540.69;;;7.83;89.89
61086;BME280;46967;48.876;2.136;2023-04-07T03:27:50;101545.00;;;7.83;90.00
61086;BME280;46967;48.876;2.136;2023-04-07T03:30:16;101543.28;;;7.83;90.04
61086;BME280;46967;48.876;2.136;2023-04-07T03:32:41;101547.59;;;7.86;89.80
61086;BME280;46967;48.876;2.136;2023-04-07T03:35:07;101538.97;;;7.85;89.71
61086;BME280;46967;48.876;2.136;2023-04-07T03:37:32;101543.25;;;7.88;89.38
61086;BME280;46967;48.876;2.136;2023-04-07T03:39:58;101546.72;;;7.88;89.89
61086;BME280;46967;48.876;2.136;2023-04-07T03:42:23;101548.41;;;7.89;89.60
61086;BME280;46967;48.876;2.136;2023-04-07T03:44:48;101547.53;;;7.95;89.54
61086;BME280;46967;48.876;2.136;2023-04-07T03:47:14;101548.38;;;7.94;89.15
61086;BME280;46967;48.876;2.136;2023-04-07T03:49:39;101543.19;;;7.95;89.02
61086;BME280;46967;48.876;2.136;2023-04-07T03:52:05;101547.59;;;7.83;89.55
61086;BME280;46967;48.876;2.136;2023-04-07T03:54:30;101552.81;;;7.75;89.72
61086;BME280;46967;48.876;2.136;2023-04-07T03:56:55;101547.66;;;7.73;90.17
61086;BME280;46967;48.876;2.136;2023-04-07T03:59:21;101550.22;;;7.73;90.29
61086;BME280;46967;48.876;2.136;2023-04-07T04:01:47;101551.09;;;7.74;90.13
61086;BME280;46967;48.876;2.136;2023-04-07T04:04:12;101544.28;;;7.64;90.78
61086;BME280;46967;48.876;2.136;2023-04-07T04:06:38;101552.91;;;7.56;91.54
61086;BME280;46967;48.876;2.136;2023-04-07T04:09:03;101558.06;;;7.59;91.66
61086;BME280;46967;48.876;2.136;2023-04-07T04:11:28;101553.78;;;7.58;91.33
61086;BME280;46967;48.876;2.136;2023-04-07T04:13:55;101548.59;;;7.60;91.44
61086;BME280;46967;48.876;2.136;2023-04-07T04:16:21;101553.75;;;7.61;90.81
61086;BME280;46967;48.876;2.136;2023-04-07T04:18:46;101552.88;;;7.62;91.04
61086;BME280;46967;48.876;2.136;2023-04-07T04:21:11;101558.03;;;7.67;90.69
61086;BME280;46967;48.876;2.136;2023-04-07T04:23:37;101559.75;;;7.68;90.45
61086;BME280;46967;48.876;2.136;2023-04-07T04:26:02;101558.00;;;7.69;90.18
61086;BME280;46967;48.876;2.136;2023-04-07T04:28:28;101566.66;;;7.69;89.57
61086;BME280;46967;48.876;2.136;2023-04-07T04:30:53;101563.19;;;7.66;89.34
61086;BME280;46967;48.876;2.136;2023-04-07T04:33:19;101570.97;;;7.61;89.48
61086;BME280;46967;48.876;2.136;2023-04-07T04:35:45;101570.97;;;7.59;88.81
61086;BME280;46967;48.876;2.136;2023-04-07T04:38:11;101577.06;;;7.54;88.76
61086;BME280;46967;48.876;2.136;2023-04-07T04:40:36;101578.81;;;7.49;88.97
61086;BME280;46967;48.876;2.136;2023-04-07T04:43:02;101575.34;;;7.45;88.89
61086;BME280;46967;48.876;2.136;2023-04-07T04:45:34;101566.78;;;7.41;89.43
61086;BME280;46967;48.876;2.136;2023-04-07T04:47:59;101571.94;;;7.43;88.21
61086;BME280;46967;48.876;2.136;2023-04-07T04:50:25;101571.09;;;7.39;87.82
61086;BME280;46967;48.876;2.136;2023-04-07T04:52:50;101571.97;;;7.35;87.48
61086;BME280;46967;48.876;2.136;2023-04-07T04:55:15;101579.72;;;7.26;87.56
61086;BME280;46967;48.876;2.136;2023-04-07T04:57:41;101574.59;;;7.20;88.38
61086;BME280;46967;48.876;2.136;2023-04-07T05:00:06;101578.06;;;7.17;88.08
61086;BME280;46967;48.876;2.136;2023-04-07T05:02:32;101579.81;;;7.14;87.98
61086;BME280;46967;48.876;2.136;2023-04-07T05:04:58;101580.66;;;7.11;87.60
61086;BME280;46967;48.876;2.136;2023-04-07T05:07:23;101589.25;;;7.08;87.23
61086;BME280;46967;48.876;2.136;2023-04-07T05:09:48;101588.41;;;7.06;87.33
61086;BME280;46967;48.876;2.136;2023-04-07T05:12:14;101596.16;;;7.02;87.25
61086;BME280;46967;48.876;2.136;2023-04-07T05:14:40;101595.31;;;6.98;87.41
61086;BME280;46967;48.876;2.136;2023-04-07T05:17:05;101595.31;;;6.97;87.86
61086;BME280;46967;48.876;2.136;2023-04-07T05:19:30;101597.91;;;6.97;89.62
61086;BME280;46967;48.876;2.136;2023-04-07T05:21:56;101599.59;;;6.98;89.02
61086;BME280;46967;48.876;2.136;2023-04-07T05:24:22;101596.19;;;6.96;89.80
61086;BME280;46967;48.876;2.136;2023-04-07T05:26:47;101599.63;;;6.95;90.06
61086;BME280;46967;48.876;2.136;2023-04-07T05:29:12;101601.34;;;6.99;90.74
61086;BME280;46967;48.876;2.136;2023-04-07T05:31:38;101606.50;;;6.96;90.88
61086;BME280;46967;48.876;2.136;2023-04-07T05:34:05;101603.06;;;6.97;91.45
61086;BME280;46967;48.876;2.136;2023-04-07T05:36:30;101596.16;;;6.99;92.00
61086;BME280;46967;48.876;2.136;2023-04-07T05:38:55;101596.16;;;7.00;92.08
61086;BME280;46967;48.876;2.136;2023-04-07T05:41:21;101599.59;;;7.04;91.99
61086;BME280;46967;48.876;2.136;2023-04-07T05:43:46;101596.16;;;7.02;91.80
61086;BME280;46967;48.876;2.136;2023-04-07T05:46:12;101603.91;;;7.10;91.51
61086;BME280;46967;48.876;2.136;2023-04-07T05:48:37;101603.88;;;7.11;91.80
61086;BME280;46967;48.876;2.136;2023-04-07T05:51:02;101598.72;;;7.11;91.89
61086;BME280;46967;48.876;2.136;2023-04-07T05:53:28;101599.56;;;7.12;92.20
61086;BME280;46967;48.876;2.136;2023-04-07T05:55:53;101600.41;;;7.15;91.89
61086;BME280;46967;48.876;2.136;2023-04-07T05:58:18;101609.03;;;7.17;92.17
61086;BME280;46967;48.876;2.136;2023-04-07T06:00:44;101603.84;;;7.25;91.55
61086;BME280;46967;48.876;2.136;2023-04-07T06:03:10;101600.38;;;7.29;91.36
61086;BME280;46967;48.876;2.136;2023-04-07T06:05:35;101605.53;;;7.31;91.40
61086;BME280;46967;48.876;2.136;2023-04-07T06:08:00;101611.53;;;7.36;91.49
61086;BME280;46967;48.876;2.136;2023-04-07T06:10:26;101621.00;;;7.40;91.02
61086;BME280;46967;48.876;2.136;2023-04-07T06:12:51;101617.56;;;7.41;90.88
61086;BME280;46967;48.876;2.136;2023-04-07T06:15:17;101621.84;;;7.42;91.16
61086;BME280;46967;48.876;2.136;2023-04-07T06:17:42;101627.03;;;7.42;90.96
61086;BME280;46967;48.876;2.136;2023-04-07T06:20:10;101627.00;;;7.47;91.00
61086;BME280;46967;48.876;2.136;2023-04-07T06:22:35;101630.41;;;7.53;90.50
61086;BME280;46967;48.876;2.136;2023-04-07T06:25:01;101631.31;;;7.46;90.83
61086;BME280;46967;48.876;2.136;2023-04-07T06:27:26;101627.00;;;7.50;90.24
61086;BME280;46967;48.876;2.136;2023-04-07T06:29:52;101633.06;;;7.47;90.67
61086;BME280;46967;48.876;2.136;2023-04-07T06:32:17;101631.31;;;7.48;90.53
61086;BME280;46967;48.876;2.136;2023-04-07T06:34:43;101639.06;;;7.51;90.72
61086;BME280;46967;48.876;2.136;2023-04-07T06:37:08;101644.19;;;7.58;90.71
61086;BME280;46967;48.876;2.136;2023-04-07T06:39:33;101641.59;;;7.68;90.30
61086;BME280;46967;48.876;2.136;2023-04-07T06:41:59;101652.75;;;7.70;90.13
61086;BME280;46967;48.876;2.136;2023-04-07T06:44:25;101657.91;;;7.76;90.13
61086;BME280;46967;48.876;2.136;2023-04-07T06:46:51;101650.97;;;7.83;90.13
61086;BME280;46967;48.876;2.136;2023-04-07T06:49:18;101658.69;;;7.90;90.15
61086;BME280;46967;48.876;2.136;2023-04-07T06:51:43;101662.94;;;7.97;89.56
61086;BME280;46967;48.876;2.136;2023-04-07T06:54:09;101668.13;;;7.99;89.73
61086;BME280;46967;48.876;2.136;2023-04-07T06:56:41;101656.88;;;8.06;88.58
61086;BME280;46967;48.876;2.136;2023-04-07T06:59:06;101660.28;;;8.14;88.46
61086;BME280;46967;48.876;2.136;2023-04-07T07:01:32;101666.41;;;8.01;88.98
61086;BME280;46967;48.876;2.136;2023-04-07T07:03:57;101670.63;;;8.14;88.64
61086;BME280;46967;48.876;2.136;2023-04-07T07:06:24;101673.97;;;8.27;88.76
61086;BME280;46967;48.876;2.136;2023-04-07T07:08:50;101686.91;;;8.27;88.24
61086;BME280;46967;48.876;2.136;2023-04-07T07:11:16;101680.78;;;8.47;87.72
61086;BME280;46967;48.876;2.136;2023-04-07T07:13:41;101673.88;;;8.50;87.90
61086;BME280;46967;48.876;2.136;2023-04-07T07:16:06;101672.06;;;8.60;87.63
61086;BME280;46967;48.876;2.136;2023-04-07T07:18:32;101671.16;;;8.66;86.43
61086;BME280;46967;48.876;2.136;2023-04-07T07:20:57;101682.41;;;8.63;86.08
61086;BME280;46967;48.876;2.136;2023-04-07T07:23:22;101674.56;;;8.73;85.69
61086;BME280;46967;48.876;2.136;2023-04-07T07:25:48;101688.38;;;8.72;85.96
61086;BME280;46967;48.876;2.136;2023-04-07T07:28:13;101690.00;;;8.83;85.65
61086;BME280;46967;48.876;2.136;2023-04-07T07:30:38;101692.50;;;8.91;85.38
61086;BME280;46967;48.876;2.136;2023-04-07T07:33:05;101691.63;;;8.94;85.10
61086;BME280;46967;48.876;2.136;2023-04-07T07:35:31;101693.38;;;8.93;84.49
61086;BME280;46967;48.876;2.136;2023-04-07T07:37:57;101695.97;;;8.95;84.11
61086;BME280;46967;48.876;2.136;2023-04-07T07:40:22;101691.56;;;9.03;84.29
61086;BME280;46967;48.876;2.136;2023-04-07T07:42:49;101692.31;;;9.14;82.54
61086;BME280;46967;48.876;2.136;2023-04-07T07:45:14;101698.19;;;9.30;81.56
61086;BME280;46967;48.876;2.136;2023-04-07T07:47:41;101687.97;;;9.16;82.54
61086;BME280;46967;48.876;2.136;2023-04-07T07:50:07;101695.50;;;9.39;82.09
61086;BME280;46967;48.876;2.136;2023-04-07T07:52:32;101692.84;;;9.47;80.92
61086;BME280;46967;48.876;2.136;2023-04-07T07:54:58;101697.13;;;9.48;79.89
61086;BME280;46967;48.876;2.136;2023-04-07T07:57:23;101695.28;;;9.59;79.44
61086;BME280;46967;48.876;2.136;2023-04-07T07:59:48;101702.22;;;9.57;79.66
61086;BME280;46967;48.876;2.136;2023-04-07T08:02:14;101705.47;;;9.75;79.18
61086;BME280;46967;48.876;2.136;2023-04-07T08:04:39;101707.09;;;9.85;78.28
61086;BME280;46967;48.876;2.136;2023-04-07T08:07:04;101703.59;;;9.88;77.41
61086;BME280;46967;48.876;2.136;2023-04-07T08:09:30;101703.34;;;10.06;77.32
61086;BME280;46967;48.876;2.136;2023-04-07T08:11:58;101696.31;;;10.16;76.96
61086;BME280;46967;48.876;2.136;2023-04-07T08:14:23;101703.41;;;10.03;76.32
61086;BME280;46967;48.876;2.136;2023-04-07T08:16:49;101705.84;;;10.14;75.74
61086;BME280;46967;48.876;2.136;2023-04-07T08:19:14;101706.53;;;10.27;75.32
61086;BME280;46967;48.876;2.136;2023-04-07T08:21:40;101714.44;;;10.18;75.20
61086;BME280;46967;48.876;2.136;2023-04-07T08:24:06;101707.38;;;10.27;74.96
61086;BME280;46967;48.876;2.136;2023-04-07T08:26:31;101705.44;;;10.43;74.91
61086;BME280;46967;48.876;2.136;2023-04-07T08:28:57;101708.97;;;10.41;74.47
61086;BME280;46967;48.876;2.136;2023-04-07T08:31:23;101714.03;;;10.50;74.35
61086;BME280;46967;48.876;2.136;2023-04-07T08:33:49;101717.41;;;10.55;74.49
61086;BME280;46967;48.876;2.136;2023-04-07T08:36:21;101710.25;;;10.69;74.67
61086;BME280;46967;48.876;2.136;2023-04-07T08:38:46;101714.66;;;10.66;73.78
61086;BME280;46967;48.876;2.136;2023-04-07T08:41:12;101712.44;;;10.94;73.22
61086;BME280;46967;48.876;2.136;2023-04-07T08:43:41;101712.25;;;11.05;71.90
61086;BME280;46967;48.876;2.136;2023-04-07T08:46:08;101705.09;;;11.18;71.13
61086;BME280;46967;48.876;2.136;2023-04-07T08:48:37;101703.34;;;11.21;70.62
61086;BME280;46967;48.876;2.136;2023-04-07T08:51:06;101706.84;;;11.17;70.83
61086;BME280;46967;48.876;2.136;2023-04-07T08:53:49;101693.69;;;11.27;70.79
61086;BME280;46967;48.876;2.136;2023-04-07T08:56:16;101703.88;;;11.39;70.68
61086;BME280;46967;48.876;2.136;2023-04-07T08:58:42;101698.72;;;11.36;69.79
61086;BME280;46967;48.876;2.136;2023-04-07T09:01:08;101702.91;;;11.43;70.14
61086;BME280;46967;48.876;2.136;2023-04-07T09:03:34;101702.53;;;11.63;69.81
61086;BME280;46967;48.876;2.136;2023-04-07T09:06:00;101704.22;;;11.66;68.17
61086;BME280;46967;48.876;2.136;2023-04-07T09:08:26;101701.53;;;11.69;68.40
61086;BME280;46967;48.876;2.136;2023-04-07T09:10:53;101706.53;;;11.79;67.34
61086;BME280;46967;48.876;2.136;2023-04-07T09:13:18;101700.94;;;12.00;66.08
61086;BME280;46967;48.876;2.136;2023-04-07T09:15:44;101706.25;;;12.36;65.43
61086;BME280;46967;48.876;2.136;2023-04-07T09:18:10;101710.66;;;12.68;64.11
61086;BME280;46967;48.876;2.136;2023-04-07T09:23:31;101709.06;;;12.25;65.99
61086;BME280;46967;48.876;2.136;2023-04-07T09:25:58;101708.00;;;12.33;65.62
61086;BME280;46967;48.876;2.136;2023-04-07T09:28:37;101709.72;;;11.94;65.55
61086;BME280;46967;48.876;2.136;2023-04-07T09:31:02;101707.63;;;11.69;65.94
61086;BME280;46967;48.876;2.136;2023-04-07T09:33:29;101722.44;;;11.66;66.33
61086;BME280;46967;48.876;2.136;2023-04-07T09:35:55;101718.91;;;11.67;66.65
61086;BME280;46967;48.876;2.136;2023-04-07T09:38:21;101708.59;;;11.62;67.21
61086;BME280;46967;48.876;2.136;2023-04-07T09:40:46;101710.28;;;11.66;67.31
61086;BME280;46967;48.876;2.136;2023-04-07T09:43:16;101720.97;;;11.51;66.46
61086;BME280;46967;48.876;2.136;2023-04-07T09:45:42;101714.72;;;11.61;66.37
61086;BME280;46967;48.876;2.136;2023-04-07T09:48:17;101716.44;;;12.06;65.69
61086;BME280;46967;48.876;2.136;2023-04-07T09:50:43;101715.06;;;12.28;64.99
61086;BME280;46967;48.876;2.136;2023-04-07T09:53:16;101718.19;;;12.80;61.52
61086;BME280;46967;48.876;2.136;2023-04-07T09:55:43;101718.41;;;13.07;60.91
61086;BME280;46967;48.876;2.136;2023-04-07T09:58:11;101716.69;;;13.06;59.63
61086;BME280;46967;48.876;2.136;2023-04-07T10:00:38;101716.84;;;13.00;59.26
61086;BME280;46967;48.876;2.136;2023-04-07T10:03:04;101728.72;;;12.76;60.52
61086;BME280;46967;48.876;2.136;2023-04-07T10:05:30;101726.84;;;12.43;60.11
61086;BME280;46967;48.876;2.136;2023-04-07T10:07:55;101724.31;;;12.03;59.25
61086;BME280;46967;48.876;2.136;2023-04-07T10:10:21;101720.50;;;11.75;60.62
61086;BME280;46967;48.876;2.136;2023-04-07T10:12:47;101726.84;;;11.60;62.20
61086;BME280;46967;48.876;2.136;2023-04-07T10:15:14;101725.94;;;11.63;62.57
61086;BME280;46967;48.876;2.136;2023-04-07T10:17:44;101722.38;;;11.67;62.60
61086;BME280;46967;48.876;2.136;2023-04-07T10:20:12;101720.72;;;11.63;62.32
61086;BME280;46967;48.876;2.136;2023-04-07T10:22:40;101715.56;;;12.05;55.85
61086;BME280;46967;48.876;2.136;2023-04-07T10:25:11;101712.50;;;12.64;52.18
61086;BME280;46967;48.876;2.136;2023-04-07T10:27:42;101714.66;;;13.17;48.22
61086;BME280;46967;48.876;2.136;2023-04-07T10:30:17;101714.50;;;13.56;49.70
61086;BME280;46967;48.876;2.136;2023-04-07T10:32:48;101712.16;;;13.79;50.48
61086;BME280;46967;48.876;2.136;2023-04-07T10:35:15;101709.19;;;13.91;50.11
61086;BME280;46967;48.876;2.136;2023-04-07T10:40:33;101714.94;;;13.05;50.21
61086;BME280;46967;48.876;2.136;2023-04-07T10:42:59;101709.50;;;13.49;49.54
61086;BME280;46967;48.876;2.136;2023-04-07T10:45:50;101706.25;;;13.72;49.31
61086;BME280;46967;48.876;2.136;2023-04-07T10:48:18;101706.63;;;14.18;48.40
61086;BME280;46967;48.876;2.136;2023-04-07T10:53:29;101700.56;;;14.74;48.37
61086;BME280;46967;48.876;2.136;2023-04-07T10:55:55;101695.53;;;14.94;48.04
61086;BME280;46967;48.876;2.136;2023-04-07T10:58:28;101699.47;;;15.06;48.25
61086;BME280;46967;48.876;2.136;2023-04-07T11:03:23;101701.22;;;14.24;47.81
61086;BME280;46967;48.876;2.136;2023-04-07T11:05:49;101693.31;;;14.54;45.90
61086;BME280;46967;48.876;2.136;2023-04-07T11:08:15;101688.59;;;14.66;46.93
61086;BME280;46967;48.876;2.136;2023-04-07T11:10:46;101691.69;;;14.78;47.90
61086;BME280;46967;48.876;2.136;2023-04-07T11:13:12;101696.97;;;14.21;49.14
61086;BME280;46967;48.876;2.136;2023-04-07T11:15:37;101701.53;;;13.85;50.34
61086;BME280;46967;48.876;2.136;2023-04-07T11:20:42;101696.25;;;13.56;48.98
61086;BME280;46967;48.876;2.136;2023-04-07T11:23:08;101694.69;;;14.39;48.42
61086;BME280;46967;48.876;2.136;2023-04-07T11:25:33;101690.50;;;14.88;46.74
61086;BME280;46967;48.876;2.136;2023-04-07T11:28:00;101678.25;;;15.39;47.38
61086;BME280;46967;48.876;2.136;2023-04-07T11:30:25;101686.19;;;15.12;45.92
61086;BME280;46967;48.876;2.136;2023-04-07T11:32:50;101686.03;;;14.65;46.84
61086;BME280;46967;48.876;2.136;2023-04-07T11:35:16;101688.13;;;14.25;47.50
61086;BME280;46967;48.876;2.136;2023-04-07T11:37:41;101692.03;;;14.40;46.99
61086;BME280;46967;48.876;2.136;2023-04-07T11:40:07;101682.91;;;14.80;45.24
61086;BME280;46967;48.876;2.136;2023-04-07T11:42:36;101683.72;;;15.08;43.26
61086;BME280;46967;48.876;2.136;2023-04-07T11:45:02;101679.56;;;15.51;43.14
61086;BME280;46967;48.876;2.136;2023-04-07T11:47:35;101675.13;;;15.78;42.88
61086;BME280;46967;48.876;2.136;2023-04-07T11:50:02;101679.34;;;16.04;42.42
61086;BME280;46967;48.876;2.136;2023-04-07T11:52:27;101678.94;;;16.15;43.96
61086;BME280;46967;48.876;2.136;2023-04-07T11:54:53;101681.31;;;16.43;43.44
61086;BME280;46967;48.876;2.136;2023-04-07T11:57:28;101685.38;;;16.51;42.20
61086;BME280;46967;48.876;2.136;2023-04-07T12:00:10;101681.59;;;15.91;43.86
61086;BME280;46967;48.876;2.136;2023-04-07T12:02:36;101681.22;;;15.79;43.00
61086;BME280;46967;48.876;2.136;2023-04-07T12:05:02;101678.72;;;15.74;41.74
61086;BME280;46967;48.876;2.136;2023-04-07T12:07:28;101689.81;;;15.57;44.75
61086;BME280;46967;48.876;2.136;2023-04-07T12:09:54;101692.66;;;15.26;46.21
61086;BME280;46967;48.876;2.136;2023-04-07T12:12:28;101698.19;;;14.93;45.91
61086;BME280;46967;48.876;2.136;2023-04-07T12:14:55;101695.94;;;14.82;46.27
61086;BME280;46967;48.876;2.136;2023-04-07T12:17:25;101699.09;;;14.65;46.27
61086;BME280;46967;48.876;2.136;2023-04-07T12:19:51;101697.41;;;14.89;45.02
61086;BME280;46967;48.876;2.136;2023-04-07T12:22:17;101688.25;;;15.28;45.76
61086;BME280;46967;48.876;2.136;2023-04-07T12:24:43;101697.38;;;15.41;47.35
61086;BME280;46967;48.876;2.136;2023-04-07T12:27:08;101698.66;;;15.29;45.86
61086;BME280;46967;48.876;2.136;2023-04-07T12:29:34;101693.03;;;15.16;46.56
61086;BME280;46967;48.876;2.136;2023-04-07T12:32:01;101697.50;;;14.59;46.16
61086;BME280;46967;48.876;2.136;2023-04-07T12:34:27;101698.88;;;14.43;46.77
61086;BME280;46967;48.876;2.136;2023-04-07T12:36:52;101692.78;;;14.16;47.50
61086;BME280;46967;48.876;2.136;2023-04-07T12:39:18;101692.41;;;14.28;47.54
61086;BME280;46967;48.876;2.136;2023-04-07T12:41:43;101692.47;;;14.53;46.79
61086;BME280;46967;48.876;2.136;2023-04-07T12:44:12;101682.81;;;15.34;44.98
61086;BME280;46967;48.876;2.136;2023-04-07T12:46:38;101681.38;;;15.25;47.06
61086;BME280;46967;48.876;2.136;2023-04-07T12:49:03;101686.19;;;15.12;45.70
61086;BME280;46967;48.876;2.136;2023-04-07T12:51:29;101689.97;;;15.03;46.14
61086;BME280;46967;48.876;2.136;2023-04-07T12:53:55;101690.81;;;14.79;47.36
61086;BME280;46967;48.876;2.136;2023-04-07T12:56:20;101691.69;;;14.49;47.80
61086;BME280;46967;48.876;2.136;2023-04-07T12:58:46;101693.72;;;14.41;48.43
61086;BME280;46967;48.876;2.136;2023-04-07T13:01:12;101693.75;;;14.40;48.10
61086;BME280;46967;48.876;2.136;2023-04-07T13:03:38;101690.16;;;14.16;46.67
61086;BME280;46967;48.876;2.136;2023-04-07T13:06:04;101686.84;;;14.10;45.39
61086;BME280;46967;48.876;2.136;2023-04-07T13:08:29;101691.78;;;14.20;45.02
61086;BME280;46967;48.876;2.136;2023-04-07T13:10:55;101679.06;;;14.65;44.77
61086;BME280;46967;48.876;2.136;2023-04-07T13:13:21;101676.06;;;15.52;42.40
61086;BME280;46967;48.876;2.136;2023-04-07T13:15:46;101668.81;;;15.35;42.86